Sim-Planet VA

Sim-Planet Nouvel Horizon. By: Anthony Pay
Since 2020.




 METAR ET TAF INFORMATION
METAR FOR GCLA
ADDS - METARS form results

(2011 UTC 28 January 2022)
Data provider http://aviationweather.gov/metar/data/
 
METAR text: GCLA 282000Z 30007G18KT CAVOK 15/09 Q1018
Conditions at: GCLA (LA PALMA AIRPORT, ES) observed 2000 UTC 28 January 2022
Temperature: 15.0°C (59°F)
Dewpoint: 9.0°C (48°F) [RH = 67%]
Pressure (altimeter): 30.06 inches Hg (1018.0 mb)
Winds: from the WNW (300 degrees) at 8 MPH (7 knots; 3.6 m/s)
gusting to 21 MPH (18 knots; 9.3 m/s)
Visibility: 6 or more miles (10+ km)
Ceiling: ceiling and visibility are OK
Clouds: unknown
Weather: no significant weather observed at this time

METAR text: GCLA 281930Z 29007KT 9999 FEW030 15/09 Q1018
Conditions at: GCLA (LA PALMA AIRPORT, ES) observed 1930 UTC 28 January 2022
Temperature: 15.0°C (59°F)
Dewpoint: 9.0°C (48°F) [RH = 67%]
Pressure (altimeter): 30.06 inches Hg (1018.0 mb)
Winds: from the WNW (290 degrees) at 8 MPH (7 knots; 3.6 m/s)
Visibility: 6 or more miles (10+ km)
Ceiling: at least 12,000 feet AGL
Clouds: few clouds at 3000 feet AGL
Weather: no significant weather observed at this time

Forecast for: AMD
Text: TAF AMD GCLA 281510Z 2815/2915 33006KT 9999 SCT030 TX20/2914Z TN14/2906Z
Forecast period: 1500 UTC 28 January 2022 to 1500 UTC 29 January 2022
Forecast type: FROM: standard forecast or significant change
Winds: from the NNW (330 degrees) at 7 MPH (6 knots; 3.1 m/s)
Visibility: 6 or more miles (10+ km)
Ceiling: at least 12,000 feet AGL
Clouds: scattered clouds at 3000 feet AGL
Weather: no significant weather forecast for this period
Text: PROB30
Forecast period: 1500 to 1800 UTC 28 January 2022
Forecast type: TEMPORARY: The following changes expected for less than half the time period
Visibility: 2.49 miles (4.01 km)
Ceiling: at least 12,000 feet AGL
Clouds: scattered clouds at 3000 feet AGL
Weather: TSRA  (rain associated with thunderstorm(s))

 AÉROPORT DE AÉROPORT

 INFORMATIONS DE PISTE
Piste 01 Longueur de la piste 7218 ft Largeur de la piste 148 ft
Élévation de la piste 103 ft Seuil de la piste déplacés 0 ft Runway heading 359
Piste 19 Longueur de la piste 7218 ft Largeur de la piste 148 ft
Élévation de la piste 65 ft Seuil de la piste déplacés 0 ft Runway heading 179

 AÉROPORT FRÉQUENCES
Type APP Nom CANARIAS A Féquence 126.1 MHZ
Type ATIS Nom INFO Féquence 118.6 MHZ
Type GND Nom GND Féquence 121.8 MHZ
Type TWR Nom TWR Féquence 118.9 MHZ

 SIDA DE NAVIGATION
Type DME Nom La Palma Féquence 112400 KHZ
Type NDB Nom La Palma Féquence 389 KHZ

Nos Partenaires